createdAt,value
2022-09-12T00:03:56.526Z,149068.34
2022-09-12T00:09:05.758Z,149109.66
2022-09-12T00:14:12.912Z,149152.22
2022-09-12T00:19:17.446Z,149126.41
2022-09-12T00:24:23.895Z,149147.03
2022-09-12T00:29:29.215Z,149139.34
2022-09-12T00:34:33.872Z,149158.63
2022-09-12T00:39:39.692Z,149125.13
2022-09-12T00:44:51.906Z,149119.97
2022-09-12T00:50:05.547Z,149119.97
2022-09-12T00:55:15.102Z,149094.16
2022-09-12T01:00:22.513Z,149082.53
2022-09-12T01:05:31.142Z,149104.50
2022-09-12T01:10:40.299Z,149086.47
2022-09-12T01:15:44.592Z,149086.47
2022-09-12T01:21:12.875Z,149117.41
2022-09-12T01:26:46.297Z,149091.59
2022-09-12T01:32:02.697Z,149089.03
2022-09-12T01:37:16.127Z,149074.81
2022-09-12T01:42:27.636Z,149055.47
2022-09-12T01:47:42.334Z,149063.22
2022-09-12T01:52:51.083Z,149011.66
2022-09-12T01:57:59.992Z,148965.22
2022-09-12T02:03:11.176Z,148945.94
2022-09-12T02:08:20.929Z,148989.75
2022-09-12T02:13:31.950Z,148993.59
2022-09-12T02:18:41.061Z,149003.91
2022-09-12T02:23:49.825Z,149006.47
2022-09-12T02:28:54.459Z,148997.44
2022-09-12T02:34:16.311Z,148976.88
2022-09-12T02:39:22.063Z,149023.25
2022-09-12T02:44:28.934Z,148996.16
2022-09-12T02:49:35.505Z,148983.28
2022-09-12T02:54:40.564Z,148978.16
2022-09-12T02:59:44.983Z,148911.09
2022-09-12T03:05:05.847Z,148905.97
2022-09-12T03:10:21.076Z,148905.97
2022-09-12T03:15:35.412Z,148913.72
2022-09-12T03:20:49.964Z,148898.22
2022-09-12T03:26:01.740Z,148896.94
2022-09-12T03:31:16.530Z,148872.47
2022-09-12T03:36:25.571Z,148827.38
2022-09-12T03:41:30.013Z,148750.13
2022-09-12T03:46:35.183Z,148809.34
2022-09-12T03:51:41.655Z,148774.56
2022-09-12T03:56:46.225Z,148801.59
2022-09-12T04:01:50.853Z,148810.63
2022-09-12T04:06:56.780Z,148757.81
2022-09-12T04:12:01.228Z,148732.06
2022-09-12T04:17:06.017Z,148778.41
2022-09-12T04:22:12.242Z,148823.50
2022-09-12T04:27:16.709Z,148827.38
2022-09-12T04:32:22.460Z,148793.91
2022-09-12T04:37:28.806Z,148787.44
2022-09-12T04:42:33.162Z,148851.84
2022-09-12T04:47:37.824Z,148850.56
2022-09-12T04:52:43.993Z,148898.22
2022-09-12T04:57:48.238Z,148913.72
2022-09-12T05:02:52.561Z,148911.09
2022-09-12T05:07:58.708Z,148827.38
2022-09-12T05:13:03.301Z,148887.91
2022-09-12T05:18:08.113Z,148871.19
2022-09-12T05:23:14.687Z,148913.72
2022-09-12T05:28:18.909Z,148975.53
2022-09-12T05:33:25.193Z,148991.03
2022-09-12T05:38:31.336Z,149067.06
2022-09-12T05:43:36.225Z,149103.19
2022-09-12T05:48:43.217Z,149179.28
2022-09-12T05:53:51.148Z,149194.78
2022-09-12T05:58:57.295Z,149277.28
2022-09-12T06:04:05.430Z,149273.44
2022-09-12T06:09:11.595Z,149218.00
2022-09-12T06:14:17.922Z,149252.81
2022-09-12T06:19:27.880Z,149261.84
2022-09-12T06:24:34.143Z,149290.19
2022-09-12T06:29:38.337Z,149370.22
2022-09-12T06:34:43.368Z,149472.19
2022-09-12T06:39:49.764Z,150201.03
2022-09-12T06:44:54.547Z,151014.50
2022-09-12T06:49:59.525Z,151768.78
2022-09-12T06:55:06.609Z,152035.25
2022-09-12T07:00:12.585Z,151961.13
2022-09-12T07:05:17.475Z,151088.47
2022-09-12T07:10:23.270Z,151164.97
2022-09-12T07:15:28.027Z,151499.88
2022-09-12T07:20:35.536Z,151815.53
2022-09-12T07:25:41.299Z,151403.75
2022-09-12T07:30:46.472Z,151202.63
2022-09-12T07:35:51.463Z,150568.66
2022-09-12T07:40:57.692Z,150480.63
2022-09-12T07:46:02.240Z,151385.56
2022-09-12T07:51:08.992Z,150733.19
2022-09-12T07:56:15.241Z,150276.09
2022-09-12T08:01:23.578Z,150066.56
2022-09-12T08:06:32.433Z,150458.63
2022-09-12T08:11:38.191Z,151028.78
2022-09-12T08:16:43.300Z,151410.28
2022-09-12T08:21:47.864Z,151332.38
2022-09-12T08:26:53.447Z,151251.88
2022-09-12T08:31:57.880Z,150772.09
2022-09-12T08:37:04.503Z,150520.78
2022-09-12T08:42:12.786Z,150509.13
2022-09-12T08:47:24.297Z,150792.81
2022-09-12T08:52:32.772Z,150779.88
2022-09-12T08:57:38.791Z,150847.28
2022-09-12T09:03:02.072Z,151026.16
2022-09-12T09:08:18.034Z,150611.44
2022-09-12T09:14:04.986Z,150691.78
2022-09-12T09:19:17.623Z,150538.91
2022-09-12T09:24:27.312Z,150414.59
2022-09-12T09:29:39.676Z,150588.16
2022-09-12T09:34:44.150Z,150865.44
2022-09-12T09:39:59.834Z,151082.00
2022-09-12T09:45:16.437Z,151052.13
2022-09-12T09:50:21.294Z,150700.81
2022-09-12T09:55:32.457Z,150532.41
2022-09-12T10:00:39.996Z,150590.72
2022-09-12T10:05:49.253Z,150956.16
2022-09-12T10:11:03.777Z,151098.84
2022-09-12T10:16:23.182Z,150866.75
2022-09-12T10:21:34.287Z,151102.72
2022-09-12T10:26:42.132Z,151161.09
2022-09-12T10:31:54.260Z,151004.13
2022-09-12T10:37:06.644Z,151218.16
2022-09-12T10:42:20.308Z,151184.44
2022-09-12T10:47:32.934Z,151187.03
2022-09-12T10:52:37.334Z,151536.22
2022-09-12T10:58:04.417Z,151383.00
2022-09-12T11:03:18.377Z,151215.59
2022-09-12T11:08:41.138Z,151355.75
2022-09-12T11:14:07.102Z,151193.53
2022-09-12T11:19:43.207Z,151425.84
2022-09-12T11:25:14.148Z,151253.19
2022-09-12T11:30:20.551Z,151250.59
2022-09-12T11:35:29.704Z,151442.72
2022-09-12T11:40:42.570Z,151384.28
2022-09-12T11:45:49.402Z,151373.91
2022-09-12T11:50:56.587Z,151494.66
2022-09-12T11:56:07.795Z,151555.72
2022-09-12T12:01:16.760Z,151631.03
2022-09-12T12:06:26.121Z,151546.63
2022-09-12T12:11:36.084Z,151702.50
2022-09-12T12:16:41.666Z,151471.25
2022-09-12T12:21:50.585Z,151458.28
2022-09-12T12:27:02.414Z,151392.09
2022-09-12T12:32:27.805Z,151534.94
2022-09-12T12:38:00.484Z,151551.84
2022-09-12T12:43:32.377Z,151537.50
2022-09-12T12:49:10.128Z,151560.88
2022-09-12T12:54:51.001Z,151550.53
2022-09-12T13:00:00.705Z,151672.59
2022-09-12T13:05:08.755Z,151794.75
2022-09-12T13:10:24.946Z,151923.47
2022-09-12T13:15:53.076Z,151832.41
2022-09-12T13:21:11.241Z,151701.19
2022-09-12T13:26:26.718Z,151809.03
2022-09-12T13:31:31.536Z,152022.25
2022-09-12T13:36:58.944Z,151936.44
2022-09-12T13:42:29.819Z,151529.75
2022-09-12T13:47:40.247Z,151325.91
2022-09-12T13:52:48.797Z,151603.72
2022-09-12T13:58:01.816Z,152065.16
2022-09-12T14:03:44.327Z,151955.97
2022-09-12T14:08:49.665Z,151353.13
2022-09-12T14:13:56.439Z,151209.06
2022-09-12T14:19:01.395Z,151194.81
2022-09-12T14:24:08.940Z,150886.19
2022-09-12T14:29:19.493Z,151864.91
2022-09-12T14:34:25.346Z,151776.53
2022-09-12T14:39:35.064Z,152260.28
2022-09-12T14:44:42.860Z,151906.53
2022-09-12T14:49:47.716Z,151653.09
2022-09-12T14:54:58.771Z,151286.97
2022-09-12T15:00:24.810Z,151386.91
2022-09-12T15:05:29.888Z,151075.50
2022-09-12T15:10:38.106Z,150893.94
2022-09-12T15:15:46.374Z,150899.16
2022-09-12T15:20:53.996Z,150810.97
2022-09-12T15:25:59.152Z,150797.97
2022-09-12T15:31:13.648Z,150792.81
2022-09-12T15:36:20.438Z,150681.41
2022-09-12T15:41:31.596Z,150544.06
2022-09-12T15:46:37.630Z,150479.34
2022-09-12T15:51:42.780Z,150485.81
2022-09-12T15:56:47.350Z,150437.91
2022-09-12T16:01:53.506Z,150401.69
2022-09-12T16:06:58.913Z,150327.91
2022-09-12T16:12:04.729Z,150272.22
2022-09-12T16:17:10.600Z,150258.00
2022-09-12T16:22:15.233Z,150215.31
2022-09-12T16:27:19.952Z,150220.47
2022-09-12T16:32:26.127Z,150168.75
2022-09-12T16:37:31.275Z,150133.78
2022-09-12T16:42:38.068Z,150210.09
2022-09-12T16:47:46.676Z,150189.41
2022-09-12T16:52:51.211Z,150122.16
2022-09-12T16:57:55.846Z,150133.78
2022-09-12T17:03:02.357Z,150118.31
2022-09-12T17:08:08.903Z,150000.59
2022-09-12T17:13:13.229Z,150008.34
2022-09-12T17:18:19.217Z,150021.28
2022-09-12T17:23:23.277Z,150003.16
2022-09-12T17:28:28.378Z,150025.13
2022-09-12T17:33:34.059Z,149952.78
2022-09-12T17:38:41.407Z,149875.19
2022-09-12T17:43:47.558Z,149939.81
2022-09-12T17:48:56.133Z,149966.97
2022-09-12T17:54:03.365Z,149912.69
2022-09-12T17:59:09.807Z,149844.22
2022-09-12T18:04:16.284Z,149811.91
2022-09-12T18:09:22.780Z,149791.22
2022-09-12T18:14:28.569Z,149786.03
2022-09-12T18:19:34.542Z,149754.97
2022-09-12T18:24:40.094Z,149726.59
2022-09-12T18:29:51.951Z,149687.81
2022-09-12T18:35:12.190Z,149647.75
2022-09-12T18:40:17.506Z,149610.34
2022-09-12T18:45:22.429Z,149640.06
2022-09-12T18:50:28.108Z,149597.44
2022-09-12T18:55:34.866Z,149574.19
2022-09-12T19:00:41.415Z,149557.41
2022-09-12T19:05:48.404Z,149557.41
2022-09-12T19:10:58.573Z,149536.72
2022-09-12T19:16:04.052Z,149516.06
2022-09-12T19:21:14.864Z,149514.78
2022-09-12T19:26:20.939Z,149536.72
2022-09-12T19:31:26.897Z,149530.31
2022-09-12T19:36:44.981Z,149553.53
2022-09-12T19:41:54.493Z,149529.03
2022-09-12T19:47:00.453Z,149569.00
2022-09-12T19:52:08.989Z,149623.25
2022-09-12T19:57:27.461Z,149615.53
2022-09-12T20:02:45.618Z,149606.47
2022-09-12T20:07:54.747Z,149566.44
2022-09-12T20:12:59.410Z,149490.28
2022-09-12T20:18:04.115Z,149447.69
2022-09-12T20:23:10.817Z,149465.75
2022-09-12T20:28:15.467Z,149415.38
2022-09-12T20:33:19.934Z,149398.63
2022-09-12T20:38:26.310Z,149383.09
2022-09-12T20:43:30.976Z,149386.94
2022-09-12T20:48:35.790Z,149411.50
2022-09-12T20:53:42.405Z,149442.53
2022-09-12T20:58:46.645Z,149504.47
2022-09-12T21:03:51.666Z,149532.88
2022-09-12T21:09:00.269Z,149575.47
2022-09-12T21:14:04.453Z,149631.00
2022-09-12T21:19:08.951Z,149566.44
2022-09-12T21:24:16.285Z,149496.75
2022-09-12T21:29:21.159Z,149430.81
2022-09-12T21:34:26.220Z,149349.56
2022-09-12T21:39:32.712Z,149370.22
2022-09-12T21:44:37.685Z,149327.63
2022-09-12T21:49:42.021Z,149306.97
2022-09-12T21:54:48.026Z,149266.97
2022-09-12T21:59:52.713Z,149243.75
2022-09-12T22:04:57.205Z,149241.19
2022-09-12T22:10:03.135Z,149184.47
2022-09-12T22:15:29.172Z,149167.66
2022-09-12T22:20:32.392Z,149184.47
2022-09-12T22:25:38.816Z,149163.81
2022-09-12T22:30:50.060Z,149148.31
2022-09-12T22:35:55.101Z,149127.69
2022-09-12T22:41:05.060Z,149117.41
2022-09-12T22:46:09.664Z,149086.47
2022-09-12T22:51:15.213Z,149070.91
2022-09-12T22:56:21.523Z,149045.16
2022-09-12T23:01:26.387Z,149054.19
2022-09-12T23:06:31.483Z,149050.28
2022-09-12T23:11:37.745Z,149019.34
2022-09-12T23:16:42.435Z,148979.44
2022-09-12T23:21:46.728Z,148954.97
2022-09-12T23:26:52.808Z,148961.38
2022-09-12T23:31:56.996Z,148947.22
2022-09-12T23:37:01.627Z,148954.97
2022-09-12T23:42:08.078Z,148942.03
2022-09-12T23:47:12.534Z,148951.06
2022-09-12T23:52:16.858Z,148926.59
2022-09-12T23:57:22.451Z,148929.16
